createdAt,value
2022-10-04T00:00:32.582Z,21.15
2022-10-04T00:01:36.827Z,21.14
2022-10-04T00:02:41.452Z,21.15
2022-10-04T00:03:45.843Z,21.17
2022-10-04T00:04:50.095Z,21.15
2022-10-04T00:05:54.330Z,21.13
2022-10-04T00:06:58.556Z,21.12
2022-10-04T00:08:02.747Z,21.11
2022-10-04T00:09:06.959Z,21.14
2022-10-04T00:10:11.189Z,21.12
2022-10-04T00:11:15.411Z,21.13
2022-10-04T00:12:19.629Z,21.13
2022-10-04T00:13:23.853Z,21.14
2022-10-04T00:14:28.090Z,21.14
2022-10-04T00:15:32.538Z,21.12
2022-10-04T00:16:36.836Z,21.13
2022-10-04T00:17:41.380Z,21.12
2022-10-04T00:18:45.582Z,21.12
2022-10-04T00:19:49.797Z,21.1
2022-10-04T00:20:54.019Z,21.09
2022-10-04T00:21:58.236Z,21.09
2022-10-04T00:23:02.426Z,21.08
2022-10-04T00:24:06.658Z,21.1
2022-10-04T00:25:10.916Z,21.11
2022-10-04T00:26:15.161Z,21.09
2022-10-04T00:27:19.381Z,21.09
2022-10-04T00:28:23.624Z,21.1
2022-10-04T00:29:28.145Z,21.08
2022-10-04T00:30:32.350Z,21.08
2022-10-04T00:31:36.558Z,21.1
2022-10-04T00:32:40.954Z,21.1
2022-10-04T00:33:45.160Z,21.1
2022-10-04T00:34:49.381Z,21.08
2022-10-04T00:35:53.596Z,21.06
2022-10-04T00:36:57.852Z,21.06
2022-10-04T00:38:02.086Z,21.07
2022-10-04T00:39:06.317Z,21.1
2022-10-04T00:40:10.525Z,21.07
2022-10-04T00:41:14.745Z,21.08
2022-10-04T00:42:18.991Z,21.09
2022-10-04T00:43:23.240Z,21.05
2022-10-04T00:44:27.507Z,21.1
2022-10-04T00:45:32.764Z,21.08
2022-10-04T00:46:37.128Z,21.1
2022-10-04T00:47:41.600Z,21.1
2022-10-04T00:48:45.876Z,21.06
2022-10-04T00:49:50.098Z,21.08
2022-10-04T00:50:54.334Z,21.07
2022-10-04T00:51:58.574Z,21.08
2022-10-04T00:53:02.855Z,21.12
2022-10-04T00:54:07.162Z,21.13
2022-10-04T00:55:11.398Z,21.12
2022-10-04T00:56:15.646Z,21.11
2022-10-04T00:57:19.876Z,21.12
2022-10-04T00:58:24.095Z,21.12
2022-10-04T00:59:28.350Z,21.12
2022-10-04T01:00:32.557Z,21.1
2022-10-04T01:01:36.806Z,21.11
2022-10-04T01:02:41.184Z,21.12
2022-10-04T01:03:45.414Z,21.08
2022-10-04T01:04:49.727Z,21.08
2022-10-04T01:05:53.946Z,21.08
2022-10-04T01:06:58.177Z,21.08
2022-10-04T01:08:02.415Z,21.09
2022-10-04T01:09:06.608Z,21.08
2022-10-04T01:10:10.821Z,21.08
2022-10-04T01:11:15.062Z,21.1
2022-10-04T01:12:19.271Z,21.08
2022-10-04T01:13:23.533Z,21.06
2022-10-04T01:14:28.783Z,21.04
2022-10-04T01:15:33.033Z,21.04
2022-10-04T01:16:37.577Z,21.04
2022-10-04T01:17:41.891Z,21.07
2022-10-04T01:18:46.095Z,21.07
2022-10-04T01:19:50.339Z,21.08
2022-10-04T01:20:54.566Z,21.06
2022-10-04T01:21:58.794Z,21.03
2022-10-04T01:23:03.026Z,21.04
2022-10-04T01:24:07.270Z,21.03
2022-10-04T01:25:11.597Z,21.02
2022-10-04T01:26:15.796Z,21.03
2022-10-04T01:27:20.056Z,21.03
2022-10-04T01:28:24.364Z,21.03
2022-10-04T01:29:28.869Z,21.04
2022-10-04T01:30:33.090Z,21.05
2022-10-04T01:31:37.430Z,21.06
2022-10-04T01:32:43.076Z,21.07
2022-10-04T01:33:48.889Z,21.07
2022-10-04T01:34:53.113Z,21.06
2022-10-04T01:35:57.348Z,21.04
2022-10-04T01:37:01.573Z,21.07
2022-10-04T01:38:05.886Z,21.08
2022-10-04T01:39:10.090Z,21.1
2022-10-04T01:40:14.316Z,21.05
2022-10-04T01:41:18.502Z,21.03
2022-10-04T01:42:22.719Z,21.05
2022-10-04T01:43:26.971Z,21.06
2022-10-04T01:44:31.216Z,21.06
2022-10-04T01:45:35.470Z,21.05
2022-10-04T01:46:39.796Z,21.05
2022-10-04T01:47:44.369Z,21.05
2022-10-04T01:48:48.611Z,21.06
2022-10-04T01:49:52.843Z,21.03
2022-10-04T01:50:57.067Z,21.04
2022-10-04T01:52:01.292Z,21.05
2022-10-04T01:53:05.516Z,21.05
2022-10-04T01:54:09.752Z,21.07
2022-10-04T01:55:14.008Z,21.05
2022-10-04T01:56:18.230Z,21.07
2022-10-04T01:57:22.518Z,21.08
2022-10-04T01:58:26.757Z,21.07
2022-10-04T01:59:31.038Z,21.07
2022-10-04T02:00:35.244Z,21.06
2022-10-04T02:01:39.540Z,21.07
2022-10-04T02:02:44.793Z,21.04
2022-10-04T02:03:49.100Z,21.03
2022-10-04T02:04:53.404Z,21.02
2022-10-04T02:05:57.790Z,21.04
2022-10-04T02:07:01.996Z,21.04
2022-10-04T02:08:06.236Z,21.04
2022-10-04T02:09:10.455Z,21.01
2022-10-04T02:10:14.771Z,21.01
2022-10-04T02:11:18.979Z,21.01
2022-10-04T02:12:23.209Z,21.01
2022-10-04T02:13:27.408Z,21.02
2022-10-04T02:14:31.633Z,20.98
2022-10-04T02:15:35.841Z,20.98
2022-10-04T02:16:40.194Z,20.99
2022-10-04T02:17:44.446Z,20.99
2022-10-04T02:18:48.659Z,21.03
2022-10-04T02:19:53.122Z,21.03
2022-10-04T02:20:57.329Z,21.05
2022-10-04T02:22:01.581Z,21.03
2022-10-04T02:23:05.789Z,21.03
2022-10-04T02:24:10.026Z,21.02
2022-10-04T02:25:14.256Z,21.03
2022-10-04T02:26:18.523Z,21.04
2022-10-04T02:27:22.756Z,21
2022-10-04T02:28:27.098Z,21.02
2022-10-04T02:29:31.565Z,21.03
2022-10-04T02:30:35.793Z,21.06
2022-10-04T02:31:40.406Z,21.07
2022-10-04T02:32:45.689Z,21.05
2022-10-04T02:33:49.940Z,21.06
2022-10-04T02:34:54.208Z,21.05
2022-10-04T02:35:58.411Z,21.04
2022-10-04T02:37:02.623Z,21.03
2022-10-04T02:38:06.855Z,21.03
2022-10-04T02:39:11.082Z,21
2022-10-04T02:40:15.313Z,21
2022-10-04T02:41:19.524Z,20.98
2022-10-04T02:42:23.778Z,20.99
2022-10-04T02:43:27.980Z,20.98
2022-10-04T02:44:32.259Z,20.97
2022-10-04T02:45:36.477Z,20.95
2022-10-04T02:46:40.756Z,20.93
2022-10-04T02:47:45.134Z,20.93
2022-10-04T02:48:49.335Z,20.95
2022-10-04T02:49:53.600Z,20.98
2022-10-04T02:50:57.832Z,20.94
2022-10-04T02:52:02.046Z,20.94
2022-10-04T02:53:06.283Z,20.93
2022-10-04T02:54:10.465Z,20.93
2022-10-04T02:55:14.713Z,20.93
2022-10-04T02:56:19.942Z,20.94
2022-10-04T02:57:24.198Z,20.93
2022-10-04T02:58:28.399Z,20.96
2022-10-04T02:59:35.341Z,20.96
2022-10-04T03:00:39.838Z,20.99
2022-10-04T03:01:44.475Z,20.95
2022-10-04T03:02:49.491Z,20.93
2022-10-04T03:03:53.779Z,20.92
2022-10-04T03:04:58.000Z,20.94
2022-10-04T03:06:02.243Z,20.93
2022-10-04T03:07:06.509Z,20.92
2022-10-04T03:08:10.778Z,20.9
2022-10-04T03:09:15.002Z,20.95
2022-10-04T03:10:19.178Z,20.96
2022-10-04T03:11:23.464Z,20.96
2022-10-04T03:12:27.697Z,20.99
2022-10-04T03:13:31.937Z,21
2022-10-04T03:14:36.137Z,21
2022-10-04T03:15:40.387Z,21
2022-10-04T03:16:44.799Z,20.98
2022-10-04T03:17:49.053Z,21
2022-10-04T03:18:53.274Z,21.01
2022-10-04T03:19:57.480Z,21
2022-10-04T03:21:01.709Z,20.99
2022-10-04T03:22:05.920Z,20.97
2022-10-04T03:23:10.175Z,20.95
2022-10-04T03:24:14.408Z,20.98
2022-10-04T03:25:18.636Z,21
2022-10-04T03:26:22.901Z,21.01
2022-10-04T03:27:27.162Z,20.99
2022-10-04T03:28:31.457Z,20.96
2022-10-04T03:29:35.899Z,20.96
2022-10-04T03:30:40.123Z,20.98
2022-10-04T03:31:44.695Z,20.96
2022-10-04T03:32:49.645Z,20.98
2022-10-04T03:33:53.928Z,20.97
2022-10-04T03:34:58.131Z,20.95
2022-10-04T03:36:02.372Z,20.94
2022-10-04T03:37:06.609Z,20.93
2022-10-04T03:38:10.813Z,20.94
2022-10-04T03:39:15.326Z,20.94
2022-10-04T03:40:19.590Z,20.94
2022-10-04T03:41:23.832Z,20.95
2022-10-04T03:42:28.040Z,20.97
2022-10-04T03:43:32.257Z,20.97
2022-10-04T03:44:36.519Z,20.96
2022-10-04T03:45:40.779Z,20.96
2022-10-04T03:46:45.176Z,20.98
2022-10-04T03:47:49.428Z,20.97
2022-10-04T03:48:53.637Z,20.96
2022-10-04T03:49:57.898Z,20.96
2022-10-04T03:51:02.132Z,20.96
2022-10-04T03:52:06.350Z,20.97
2022-10-04T03:53:10.616Z,20.97
2022-10-04T03:54:14.814Z,20.98
2022-10-04T03:55:19.048Z,20.99
2022-10-04T03:56:23.314Z,21
2022-10-04T03:57:27.613Z,21.01
2022-10-04T03:58:31.852Z,21.02
2022-10-04T03:59:36.167Z,21.01
2022-10-04T04:00:40.383Z,21
2022-10-04T04:01:45.138Z,21
2022-10-04T04:02:49.646Z,21.01
2022-10-04T04:03:53.937Z,21.05
2022-10-04T04:04:58.151Z,21.12
2022-10-04T04:06:02.403Z,21.28
2022-10-04T04:07:06.709Z,21.42
2022-10-04T04:08:10.964Z,21.52
2022-10-04T04:09:15.226Z,21.53
2022-10-04T04:10:19.465Z,21.54
2022-10-04T04:11:23.711Z,21.53
2022-10-04T04:12:27.965Z,21.55
2022-10-04T04:13:32.203Z,21.56
2022-10-04T04:14:36.445Z,21.57
2022-10-04T04:15:40.675Z,21.61
2022-10-04T04:16:44.930Z,21.62
2022-10-04T04:17:49.234Z,21.62
2022-10-04T04:18:53.475Z,21.63
2022-10-04T04:19:57.738Z,21.65
2022-10-04T04:21:09.465Z,21.66
2022-10-04T04:22:13.694Z,21.69
2022-10-04T04:23:17.918Z,21.69
2022-10-04T04:24:22.134Z,21.72
2022-10-04T04:25:26.386Z,21.74
2022-10-04T04:26:31.591Z,21.77
2022-10-04T04:27:35.810Z,21.79
2022-10-04T04:28:40.052Z,21.8
2022-10-04T04:29:44.294Z,21.81
2022-10-04T04:30:48.508Z,21.83
2022-10-04T04:31:52.821Z,21.85
2022-10-04T04:32:57.276Z,21.89
2022-10-04T04:34:01.491Z,21.9
2022-10-04T04:35:05.688Z,21.91
2022-10-04T04:36:09.897Z,21.92
2022-10-04T04:37:14.085Z,21.95
2022-10-04T04:38:18.332Z,21.94
2022-10-04T04:39:22.734Z,21.92
2022-10-04T04:40:26.946Z,21.94
2022-10-04T04:41:31.245Z,21.92
2022-10-04T04:42:35.474Z,21.91
2022-10-04T04:43:39.665Z,21.89
2022-10-04T04:44:43.881Z,21.89
2022-10-04T04:45:55.054Z,21.87
2022-10-04T04:47:30.449Z,21.86
2022-10-04T04:48:34.676Z,21.84
2022-10-04T04:49:38.891Z,21.82
2022-10-04T04:50:43.160Z,21.81
2022-10-04T04:51:47.426Z,21.79
2022-10-04T04:52:51.640Z,21.78
2022-10-04T04:53:55.856Z,21.75
2022-10-04T04:55:00.084Z,21.73
2022-10-04T04:56:05.124Z,21.72
2022-10-04T04:57:15.803Z,21.69
2022-10-04T04:58:20.021Z,21.66
2022-10-04T04:59:24.254Z,21.66
2022-10-04T05:00:28.496Z,21.64
2022-10-04T05:01:32.755Z,21.62
2022-10-04T05:02:37.132Z,21.6
2022-10-04T05:03:41.571Z,21.59
2022-10-04T05:04:45.784Z,21.58
2022-10-04T05:05:50.017Z,21.56
2022-10-04T05:06:54.260Z,21.54
2022-10-04T05:07:58.476Z,21.53
2022-10-04T05:09:02.681Z,21.52
2022-10-04T05:10:06.925Z,21.5
2022-10-04T05:11:11.134Z,21.47
2022-10-04T05:12:15.363Z,21.47
2022-10-04T05:13:19.609Z,21.46
2022-10-04T05:14:23.812Z,21.46
2022-10-04T05:15:28.084Z,21.47
2022-10-04T05:16:32.428Z,21.45
2022-10-04T05:17:36.863Z,21.44
2022-10-04T05:18:41.062Z,21.44
2022-10-04T05:19:45.264Z,21.42
2022-10-04T05:20:49.486Z,21.4
2022-10-04T05:21:53.704Z,21.39
2022-10-04T05:22:57.954Z,21.4
2022-10-04T05:24:02.192Z,21.39
2022-10-04T05:25:06.397Z,21.4
2022-10-04T05:26:10.607Z,21.35
2022-10-04T05:27:14.822Z,21.38
2022-10-04T05:28:19.173Z,21.37
2022-10-04T05:29:23.628Z,21.35
2022-10-04T05:30:27.841Z,21.36
2022-10-04T05:31:32.108Z,21.34
2022-10-04T05:32:36.464Z,21.33
2022-10-04T05:33:40.750Z,21.33
2022-10-04T05:34:45.011Z,21.3
2022-10-04T05:35:49.465Z,21.31
2022-10-04T05:36:53.695Z,21.3
2022-10-04T05:37:58.030Z,21.31
2022-10-04T05:39:02.229Z,21.29
2022-10-04T05:40:06.473Z,21.27
2022-10-04T05:41:10.684Z,21.27
2022-10-04T05:42:14.906Z,21.28
2022-10-04T05:43:19.148Z,21.28
2022-10-04T05:44:23.371Z,21.27
2022-10-04T05:45:27.702Z,21.26
2022-10-04T05:46:32.124Z,21.25
2022-10-04T05:47:36.332Z,21.23
2022-10-04T05:48:40.558Z,21.22
2022-10-04T05:49:44.765Z,21.23
2022-10-04T05:50:48.984Z,21.25
2022-10-04T05:51:53.195Z,21.27
2022-10-04T05:52:57.400Z,21.26
2022-10-04T05:54:01.726Z,21.28
2022-10-04T05:55:05.943Z,21.33
2022-10-04T05:56:10.161Z,21.36
2022-10-04T05:57:14.372Z,21.4
2022-10-04T05:58:18.584Z,21.41
2022-10-04T05:59:22.825Z,21.44
2022-10-04T06:00:27.067Z,21.45
2022-10-04T06:01:31.432Z,21.47
2022-10-04T06:02:36.011Z,21.48
2022-10-04T06:03:40.764Z,21.49
2022-10-04T06:04:44.994Z,21.49
2022-10-04T06:05:52.742Z,21.49
2022-10-04T06:06:56.944Z,21.48
2022-10-04T06:08:01.171Z,21.47
2022-10-04T06:09:05.397Z,21.46
2022-10-04T06:10:09.585Z,21.46
2022-10-04T06:11:13.805Z,21.46
2022-10-04T06:12:17.993Z,21.45
2022-10-04T06:13:22.479Z,21.45
2022-10-04T06:14:26.709Z,21.43
2022-10-04T06:15:30.925Z,21.42
2022-10-04T06:16:35.222Z,21.42
2022-10-04T06:17:39.742Z,21.41
2022-10-04T06:18:43.957Z,21.41
2022-10-04T06:19:48.186Z,21.41
2022-10-04T06:20:52.408Z,21.41
2022-10-04T06:21:56.628Z,21.39
2022-10-04T06:23:00.852Z,21.38
2022-10-04T06:24:05.062Z,21.38
2022-10-04T06:25:09.309Z,21.39
2022-10-04T06:26:13.539Z,21.38
2022-10-04T06:27:17.809Z,21.4
2022-10-04T06:28:22.157Z,21.38
2022-10-04T06:29:26.793Z,21.36
2022-10-04T06:30:31.065Z,21.34
2022-10-04T06:31:35.424Z,21.33
2022-10-04T06:32:39.641Z,21.32
2022-10-04T06:33:43.921Z,21.32
2022-10-04T06:34:48.120Z,21.33
2022-10-04T06:35:52.585Z,21.35
2022-10-04T06:36:56.814Z,21.34
2022-10-04T06:38:01.029Z,21.32
2022-10-04T06:39:05.241Z,21.32
2022-10-04T06:40:09.466Z,21.3
2022-10-04T06:41:13.704Z,21.29
2022-10-04T06:42:17.917Z,21.31
2022-10-04T06:43:22.387Z,21.3
2022-10-04T06:44:26.603Z,21.28
2022-10-04T06:45:30.822Z,21.25
2022-10-04T06:46:35.175Z,21.23
2022-10-04T06:47:39.690Z,21.23
2022-10-04T06:48:43.938Z,21.22
2022-10-04T06:49:48.315Z,21.21
2022-10-04T06:50:52.552Z,21.2
2022-10-04T06:51:56.798Z,21.2
2022-10-04T06:53:01.008Z,21.21
2022-10-04T06:54:05.238Z,21.21
2022-10-04T06:55:09.428Z,21.21
2022-10-04T06:56:13.665Z,21.21
2022-10-04T06:57:17.911Z,21.19
2022-10-04T06:58:22.127Z,21.19
2022-10-04T06:59:26.333Z,21.19
2022-10-04T07:00:30.814Z,21.2
2022-10-04T07:01:35.185Z,21.21
2022-10-04T07:02:39.798Z,21.2
2022-10-04T07:03:46.958Z,21.21
2022-10-04T07:05:10.431Z,21.21
2022-10-04T07:06:14.726Z,21.19
2022-10-04T07:07:18.955Z,21.2
2022-10-04T07:08:23.250Z,21.21
2022-10-04T07:09:27.471Z,21.22
2022-10-04T07:10:31.688Z,21.21
2022-10-04T07:11:35.942Z,21.2
2022-10-04T07:12:40.144Z,21.23
2022-10-04T07:13:44.430Z,21.29
2022-10-04T07:14:48.653Z,21.33
2022-10-04T07:15:52.901Z,21.36
2022-10-04T07:16:57.331Z,21.38
2022-10-04T07:18:01.560Z,21.42
2022-10-04T07:19:05.777Z,21.44
2022-10-04T07:20:10.026Z,21.47
2022-10-04T07:21:14.302Z,21.47
2022-10-04T07:22:18.530Z,21.49
2022-10-04T07:23:26.257Z,21.5
2022-10-04T07:24:32.665Z,21.49
2022-10-04T07:25:36.886Z,21.5
2022-10-04T07:26:41.107Z,21.5
2022-10-04T07:27:45.366Z,21.5
2022-10-04T07:28:49.678Z,21.51
2022-10-04T07:29:53.926Z,21.52
2022-10-04T07:30:58.184Z,21.51
2022-10-04T07:32:02.593Z,21.5
2022-10-04T07:33:06.820Z,21.49
2022-10-04T07:34:11.086Z,21.5
2022-10-04T07:35:15.374Z,21.48
2022-10-04T07:36:21.818Z,21.48
2022-10-04T07:37:26.169Z,21.47
2022-10-04T07:38:30.408Z,21.45
2022-10-04T07:39:34.624Z,21.45
2022-10-04T07:40:38.889Z,21.44
2022-10-04T07:41:43.332Z,21.44
2022-10-04T07:42:48.512Z,21.42
2022-10-04T07:43:52.740Z,21.42
2022-10-04T07:44:56.978Z,21.41
2022-10-04T07:46:01.183Z,21.41
2022-10-04T07:47:05.667Z,21.41
2022-10-04T07:48:09.908Z,21.39
2022-10-04T07:49:14.118Z,21.38
2022-10-04T07:50:20.594Z,21.4
2022-10-04T07:51:24.904Z,21.4
2022-10-04T07:52:29.149Z,21.4
2022-10-04T07:53:33.363Z,21.37
2022-10-04T07:54:37.572Z,21.39
2022-10-04T07:55:41.837Z,21.36
2022-10-04T07:56:46.066Z,21.38
2022-10-04T07:57:50.318Z,21.38
2022-10-04T07:58:54.543Z,21.38
2022-10-04T07:59:58.760Z,21.38
2022-10-04T08:01:02.997Z,21.36
2022-10-04T08:02:07.400Z,21.35
2022-10-04T08:03:12.187Z,21.36
2022-10-04T08:04:16.744Z,21.35
2022-10-04T08:05:20.955Z,21.34
2022-10-04T08:06:25.498Z,21.34
2022-10-04T08:07:29.713Z,21.33
2022-10-04T08:08:33.919Z,21.34
2022-10-04T08:09:38.167Z,21.3
2022-10-04T08:10:42.411Z,21.29
2022-10-04T08:11:46.725Z,21.29
2022-10-04T08:12:50.940Z,21.28
2022-10-04T08:13:55.164Z,21.26
2022-10-04T08:14:59.388Z,21.24
2022-10-04T08:16:03.677Z,21.26
2022-10-04T08:17:10.790Z,21.25
2022-10-04T08:18:19.150Z,21.23
2022-10-04T08:19:23.393Z,21.22
2022-10-04T08:20:28.614Z,21.22
2022-10-04T08:21:32.833Z,21.2
2022-10-04T08:22:37.073Z,21.2
2022-10-04T08:23:41.274Z,21.19
2022-10-04T08:24:47.223Z,21.19
2022-10-04T08:25:56.765Z,21.21
2022-10-04T08:27:00.995Z,21.2
2022-10-04T08:28:05.330Z,21.2
2022-10-04T08:29:09.687Z,21.19
2022-10-04T08:30:13.984Z,21.19
2022-10-04T08:31:18.239Z,21.18
2022-10-04T08:32:22.675Z,21.19
2022-10-04T08:33:26.906Z,21.17
2022-10-04T08:34:31.211Z,21.16
2022-10-04T08:35:35.541Z,21.15
2022-10-04T08:36:40.194Z,21.15
2022-10-04T08:37:45.577Z,21.18
2022-10-04T08:38:49.787Z,21.18
2022-10-04T08:39:54.080Z,21.18
2022-10-04T08:40:58.363Z,21.19
2022-10-04T08:42:02.805Z,21.18
2022-10-04T08:43:07.087Z,21.18
2022-10-04T08:44:11.319Z,21.18
2022-10-04T08:45:15.589Z,21.17
2022-10-04T08:46:19.996Z,21.17
2022-10-04T08:47:24.355Z,21.17
2022-10-04T08:48:28.558Z,21.18
2022-10-04T08:49:32.813Z,21.18
2022-10-04T08:50:37.067Z,21.14
2022-10-04T08:51:41.293Z,21.14
2022-10-04T08:52:45.533Z,21.15
2022-10-04T08:53:49.770Z,21.14
2022-10-04T08:54:54.012Z,21.13
2022-10-04T08:55:58.249Z,21.13
2022-10-04T08:57:02.461Z,21.16
2022-10-04T08:58:06.676Z,21.19
2022-10-04T08:59:10.913Z,21.24
2022-10-04T09:00:15.132Z,21.29
2022-10-04T09:01:19.539Z,21.3
2022-10-04T09:02:23.868Z,21.33
2022-10-04T09:03:28.281Z,21.36
2022-10-04T09:04:32.495Z,21.39
2022-10-04T09:05:36.718Z,21.41
2022-10-04T09:06:41.268Z,21.41
2022-10-04T09:07:46.598Z,21.41
2022-10-04T09:08:50.806Z,21.41
2022-10-04T09:09:55.004Z,21.42
2022-10-04T09:10:59.222Z,21.41
2022-10-04T09:12:03.488Z,21.4
2022-10-04T09:13:07.728Z,21.39
2022-10-04T09:14:11.941Z,21.41
2022-10-04T09:15:16.170Z,21.39
2022-10-04T09:16:20.466Z,21.38
2022-10-04T09:17:24.984Z,21.38
2022-10-04T09:18:29.208Z,21.38
2022-10-04T09:19:33.429Z,21.38
2022-10-04T09:20:39.282Z,21.38
2022-10-04T09:21:43.992Z,21.39
2022-10-04T09:22:48.236Z,21.38
2022-10-04T09:23:52.482Z,21.38
2022-10-04T09:24:56.718Z,21.39
2022-10-04T09:26:01.224Z,21.38
2022-10-04T09:27:05.443Z,21.37
2022-10-04T09:28:09.734Z,21.38
2022-10-04T09:29:14.187Z,21.34
2022-10-04T09:30:18.394Z,21.35
2022-10-04T09:31:22.721Z,21.35
2022-10-04T09:32:27.281Z,21.34
2022-10-04T09:33:31.469Z,21.33
2022-10-04T09:34:37.566Z,21.32
2022-10-04T09:35:41.932Z,21.3
2022-10-04T09:36:46.485Z,21.3
2022-10-04T09:37:50.841Z,21.32
2022-10-04T09:39:11.738Z,21.31
2022-10-04T09:40:34.075Z,21.27
2022-10-04T09:41:38.303Z,21.26
2022-10-04T09:42:42.518Z,21.26
2022-10-04T09:43:46.778Z,21.24
2022-10-04T09:44:51.201Z,21.23
2022-10-04T09:45:55.497Z,21.25
2022-10-04T09:46:59.975Z,21.24
2022-10-04T09:48:04.590Z,21.23
2022-10-04T09:49:08.806Z,21.23
2022-10-04T09:50:13.076Z,21.21
2022-10-04T09:51:17.515Z,21.23
2022-10-04T09:52:21.757Z,21.22
2022-10-04T09:53:26.002Z,21.24
2022-10-04T09:54:30.229Z,21.22
2022-10-04T09:55:34.430Z,21.24
2022-10-04T09:56:38.663Z,21.24
2022-10-04T09:57:43.506Z,21.23
2022-10-04T09:58:48.796Z,21.25
2022-10-04T09:59:53.064Z,21.21
2022-10-04T10:00:57.277Z,21.21
2022-10-04T10:02:01.545Z,21.2
2022-10-04T10:03:06.037Z,21.21
2022-10-04T10:04:17.885Z,21.22
2022-10-04T10:05:22.132Z,21.21
2022-10-04T10:06:26.345Z,21.22
2022-10-04T10:07:30.574Z,21.23
2022-10-04T10:08:34.834Z,21.23
2022-10-04T10:09:39.068Z,21.21
2022-10-04T10:10:43.313Z,21.19
2022-10-04T10:11:47.541Z,21.19
2022-10-04T10:12:51.748Z,21.18
2022-10-04T10:13:56.029Z,21.18
2022-10-04T10:15:00.289Z,21.2
2022-10-04T10:16:04.669Z,21.2
2022-10-04T10:17:09.190Z,21.22
2022-10-04T10:18:13.403Z,21.22
2022-10-04T10:19:17.670Z,21.21
2022-10-04T10:20:21.889Z,21.22
2022-10-04T10:21:26.209Z,21.2
2022-10-04T10:22:30.453Z,21.21
2022-10-04T10:23:34.686Z,21.23
2022-10-04T10:24:38.958Z,21.21
2022-10-04T10:25:43.233Z,21.23
2022-10-04T10:26:47.489Z,21.2
2022-10-04T10:27:51.746Z,21.18
2022-10-04T10:28:56.215Z,21.19
2022-10-04T10:30:01.465Z,21.17
2022-10-04T10:31:05.821Z,21.17
2022-10-04T10:32:10.237Z,21.14
2022-10-04T10:33:14.487Z,21.13
2022-10-04T10:34:18.735Z,21.13
2022-10-04T10:35:22.985Z,21.21
2022-10-04T10:36:27.291Z,21.19
2022-10-04T10:37:33.897Z,21.18
2022-10-04T10:38:38.125Z,21.15
2022-10-04T10:39:42.361Z,21.1
2022-10-04T10:40:46.585Z,21.06
2022-10-04T10:41:50.847Z,21.07
2022-10-04T10:42:55.091Z,21.04
2022-10-04T10:43:59.333Z,21
2022-10-04T10:45:04.573Z,21
2022-10-04T10:46:08.816Z,21
2022-10-04T10:47:13.165Z,21.02
2022-10-04T10:48:17.445Z,20.98
2022-10-04T10:49:22.433Z,20.97
2022-10-04T10:50:26.736Z,20.89
2022-10-04T10:51:30.966Z,20.9
2022-10-04T10:52:35.161Z,20.88
2022-10-04T10:53:39.403Z,20.85
2022-10-04T10:54:43.645Z,20.83
2022-10-04T10:55:47.921Z,20.81
2022-10-04T10:56:52.160Z,20.78
2022-10-04T10:57:56.405Z,20.77
2022-10-04T10:59:00.745Z,20.76
2022-10-04T11:00:04.978Z,20.74
2022-10-04T11:01:09.226Z,20.73
2022-10-04T11:02:13.561Z,20.78
2022-10-04T11:03:22.157Z,20.78
2022-10-04T11:04:35.089Z,20.75
2022-10-04T11:05:39.303Z,20.69
2022-10-04T11:06:43.716Z,20.78
2022-10-04T11:07:49.165Z,20.79
2022-10-04T11:08:53.358Z,20.8
2022-10-04T11:09:57.582Z,20.84
2022-10-04T11:11:01.796Z,20.87
2022-10-04T11:12:06.048Z,20.85
2022-10-04T11:13:10.309Z,20.86
2022-10-04T11:14:14.537Z,20.86
2022-10-04T11:15:18.778Z,20.87
2022-10-04T11:16:23.097Z,20.9
2022-10-04T11:17:27.546Z,20.91
2022-10-04T11:18:31.815Z,20.91
2022-10-04T11:19:36.054Z,20.92
2022-10-04T11:20:40.258Z,20.9
2022-10-04T11:21:44.494Z,20.91
2022-10-04T11:22:48.694Z,20.88
2022-10-04T11:23:52.887Z,20.88
2022-10-04T11:24:57.132Z,20.89
2022-10-04T11:26:01.387Z,20.9
2022-10-04T11:27:05.630Z,20.93
2022-10-04T11:28:09.909Z,20.94
2022-10-04T11:29:15.284Z,20.94
2022-10-04T11:30:19.517Z,20.96
2022-10-04T11:31:23.782Z,20.95
2022-10-04T11:32:28.133Z,20.93
2022-10-04T11:33:32.367Z,20.93
2022-10-04T11:34:36.603Z,20.94
2022-10-04T11:35:40.921Z,20.94
2022-10-04T11:36:45.384Z,20.97
2022-10-04T11:37:50.979Z,20.95
2022-10-04T11:38:55.216Z,20.96
2022-10-04T11:39:59.440Z,20.94
2022-10-04T11:41:03.744Z,20.96
2022-10-04T11:42:08.008Z,20.98
2022-10-04T11:43:12.206Z,21
2022-10-04T11:44:16.461Z,21
2022-10-04T11:45:20.724Z,20.99
2022-10-04T11:46:25.025Z,20.99
2022-10-04T11:47:29.573Z,20.99
2022-10-04T11:48:33.786Z,20.98
2022-10-04T11:49:37.977Z,21
2022-10-04T11:50:42.213Z,20.99
2022-10-04T11:51:46.416Z,20.99
2022-10-04T11:52:50.664Z,21
2022-10-04T11:53:54.881Z,21
2022-10-04T11:55:00.107Z,21
2022-10-04T11:56:04.410Z,21
2022-10-04T11:57:08.696Z,21
2022-10-04T11:58:12.931Z,21
2022-10-04T11:59:17.181Z,21
2022-10-04T12:00:21.406Z,20.99
2022-10-04T12:01:25.629Z,21
2022-10-04T12:02:29.886Z,20.99
2022-10-04T12:03:34.199Z,21
2022-10-04T12:04:38.657Z,21
2022-10-04T12:05:43.084Z,21.02
2022-10-04T12:06:47.652Z,21.02
2022-10-04T12:07:52.188Z,21.01
2022-10-04T12:08:56.409Z,21.04
2022-10-04T12:10:01.200Z,21.05
2022-10-04T12:11:05.678Z,21.05
2022-10-04T12:12:09.926Z,21.04
2022-10-04T12:13:14.181Z,21.03
2022-10-04T12:14:18.418Z,21.05
2022-10-04T12:15:22.646Z,21.07
2022-10-04T12:16:26.936Z,21.06
2022-10-04T12:17:31.495Z,21.07
2022-10-04T12:18:35.722Z,21.07
2022-10-04T12:19:39.956Z,21.07
2022-10-04T12:20:44.145Z,21.08
2022-10-04T12:21:48.421Z,21.1
2022-10-04T12:22:52.733Z,21.09
2022-10-04T12:23:56.942Z,21.1
2022-10-04T12:25:01.204Z,21.08
2022-10-04T12:26:05.461Z,21.1
2022-10-04T12:27:09.671Z,21.1
2022-10-04T12:28:13.981Z,21.1
2022-10-04T12:29:18.493Z,21.09
2022-10-04T12:30:22.736Z,21.09
2022-10-04T12:31:27.046Z,21.08
2022-10-04T12:32:31.452Z,21.08
2022-10-04T12:33:35.695Z,21.08
2022-10-04T12:34:39.936Z,21.07
2022-10-04T12:35:44.198Z,21.05
2022-10-04T12:36:48.662Z,21.07
2022-10-04T12:37:53.030Z,21.07
2022-10-04T12:38:57.246Z,21.08
2022-10-04T12:40:01.425Z,21.08
2022-10-04T12:41:05.699Z,21.08
2022-10-04T12:42:09.940Z,21.08
2022-10-04T12:43:14.939Z,21.08
2022-10-04T12:44:19.164Z,21.08
2022-10-04T12:45:23.504Z,21.08
2022-10-04T12:46:27.993Z,21.08
2022-10-04T12:47:33.179Z,21.08
2022-10-04T12:48:37.436Z,21.09
2022-10-04T12:49:41.664Z,21.08
2022-10-04T12:50:45.943Z,21.09
2022-10-04T12:51:50.191Z,21.08
2022-10-04T12:52:54.396Z,21.09
2022-10-04T12:53:58.990Z,21.08
2022-10-04T12:55:03.227Z,21.09
2022-10-04T12:56:07.471Z,21.1
2022-10-04T12:57:11.703Z,21.11
2022-10-04T12:58:15.976Z,21.1
2022-10-04T12:59:20.202Z,21.09
2022-10-04T13:00:24.455Z,21.09
2022-10-04T13:01:28.782Z,21.08
2022-10-04T13:02:33.279Z,21.08
2022-10-04T13:03:37.827Z,21.09
2022-10-04T13:04:42.060Z,21.1
2022-10-04T13:05:46.292Z,21.11
2022-10-04T13:06:50.786Z,21.1
2022-10-04T13:07:55.098Z,21.1
2022-10-04T13:08:59.431Z,21.08
2022-10-04T13:10:23.402Z,21.08
2022-10-04T13:11:29.436Z,21.07
2022-10-04T13:12:33.663Z,21.07
2022-10-04T13:13:37.894Z,21.05
2022-10-04T13:14:42.138Z,21.05
2022-10-04T13:18:20.658Z,21.04
2022-10-04T13:19:24.873Z,21.02
2022-10-04T13:20:29.161Z,21.03
2022-10-04T13:21:33.395Z,21.01
2022-10-04T13:22:55.759Z,21.01
2022-10-04T13:24:01.471Z,21.01
2022-10-04T13:25:07.923Z,21.01
2022-10-04T13:26:12.169Z,21.02
2022-10-04T13:27:16.445Z,21.03
2022-10-04T13:28:20.795Z,21.05
2022-10-04T13:29:25.387Z,21.05
2022-10-04T13:30:29.654Z,21.04
2022-10-04T13:31:33.881Z,21.03
2022-10-04T13:32:38.504Z,21.03
2022-10-04T13:33:42.744Z,21.03
2022-10-04T13:34:46.963Z,21.04
2022-10-04T13:35:51.531Z,21.05
2022-10-04T13:36:55.776Z,21.06
2022-10-04T13:38:00.018Z,21.06
2022-10-04T13:39:04.258Z,21.08
2022-10-04T13:40:08.475Z,21.08
2022-10-04T13:41:12.738Z,21.09
2022-10-04T13:42:17.004Z,21.08
2022-10-04T13:43:21.238Z,21.07
2022-10-04T13:44:25.476Z,21.07
2022-10-04T13:45:29.693Z,21.08
2022-10-04T13:46:34.126Z,21.08
2022-10-04T13:47:38.356Z,21.09
2022-10-04T13:48:42.599Z,21.07
2022-10-04T13:49:47.099Z,21.07
2022-10-04T13:50:51.332Z,21.08
2022-10-04T13:51:55.812Z,21.07
2022-10-04T13:53:00.095Z,21.06
2022-10-04T13:54:04.323Z,21.06
2022-10-04T13:55:08.565Z,21.04
2022-10-04T13:56:12.856Z,21.04
2022-10-04T13:57:17.102Z,21.05
2022-10-04T13:58:21.345Z,21.05
2022-10-04T13:59:25.570Z,21.06